Time;durP1;ratioP1;P1;durP2;ratioP2;P2;SDS_P1;SDS_P2;PMS_P1;PMS_P2;Temp;Humidity;BMP_temperature;BMP_pressure;BME280_temperature;BME280_humidity;BME280_pressure;Samples;Min_cycle;Max_cycle;Signal;HPM_P1;HPM_P2
2023/09/17 00:00:46;;;;;;;10.57;9.50;;;;;;;;;;4972996;28;20440;-64
2023/09/17 00:03:12;;;;;;;10.27;9.27;;;;;;;;;;4973053;28;20509;-64
2023/09/17 00:05:38;;;;;;;10.13;9.33;;;;;;;;;;4973089;28;20506;-64
2023/09/17 00:08:04;;;;;;;10.47;9.40;;;;;;;;;;4972882;28;20427;-64
2023/09/17 00:10:31;;;;;;;10.50;9.70;;;;;;;;;;4972384;28;20771;-64
2023/09/17 00:12:57;;;;;;;9.77;9.07;;;;;;;;;;4973040;28;20434;-64
2023/09/17 00:15:25;;;;;;;9.67;8.70;;;;;;;;;;4972844;28;20485;-64
2023/09/17 00:17:51;;;;;;;9.40;8.60;;;;;;;;;;4973079;28;20414;-64
2023/09/17 00:20:17;;;;;;;8.43;7.83;;;;;;;;;;4973009;28;20501;-64
2023/09/17 00:22:43;;;;;;;8.03;7.53;;;;;;;;;;4972648;28;20460;-64
2023/09/17 00:25:09;;;;;;;7.63;7.13;;;;;;;;;;4972833;28;20429;-64
2023/09/17 00:27:35;;;;;;;9.33;8.30;;;;;;;;;;4973017;28;20414;-64
2023/09/17 00:30:01;;;;;;;8.13;7.50;;;;;;;;;;4973092;28;20410;-64
2023/09/17 00:32:27;;;;;;;7.97;7.23;;;;;;;;;;4972976;28;20420;-64
2023/09/17 00:34:53;;;;;;;9.20;7.67;;;;;;;;;;4971347;28;20853;-64
2023/09/17 00:37:19;;;;;;;7.17;6.60;;;;;;;;;;4973183;28;20399;-64
2023/09/17 00:39:47;;;;;;;7.50;6.83;;;;;;;;;;4976565;28;20449;-64
2023/09/17 00:42:13;;;;;;;7.50;7.00;;;;;;;;;;4976917;28;20417;-64
2023/09/17 00:44:39;;;;;;;7.60;7.00;;;;;;;;;;4976062;28;20504;-64
2023/09/17 00:47:06;;;;;;;8.20;7.60;;;;;;;;;;4975769;28;20411;-64
2023/09/17 00:49:33;;;;;;;8.00;7.50;;;;;;;;;;4976281;28;20422;-64
2023/09/17 00:52:03;;;;;;;7.47;6.97;;;;;;;;;;4975086;28;20434;-64
2023/09/17 00:54:30;;;;;;;8.13;7.63;;;;;;;;;;4976138;28;20825;-64
2023/09/17 00:56:56;;;;;;;8.17;7.47;;;;;;;;;;4976194;28;20445;-64
2023/09/17 00:59:25;;;;;;;7.90;7.40;;;;;;;;;;4976076;28;20895;-64
2023/09/17 01:01:53;;;;;;;7.43;6.93;;;;;;;;;;4976240;28;20948;-64
2023/09/17 01:04:19;;;;;;;7.67;7.07;;;;;;;;;;4976077;28;20440;-64
2023/09/17 01:06:46;;;;;;;6.43;6.07;;;;;;;;;;4974584;28;20561;-64
2023/09/17 01:09:13;;;;;;;7.70;7.00;;;;;;;;;;4975881;28;20420;-64
2023/09/17 01:11:42;;;;;;;8.27;7.40;;;;;;;;;;4976116;28;20797;-64
2023/09/17 01:14:10;;;;;;;7.73;7.23;;;;;;;;;;4975993;28;20838;-64
2023/09/17 01:16:38;;;;;;;6.20;5.80;;;;;;;;;;4975687;28;20417;-64
2023/09/17 01:19:04;;;;;;;7.30;6.80;;;;;;;;;;4976231;28;20418;-64
2023/09/17 01:21:36;;;;;;;7.80;7.17;;;;;;;;;;4976110;28;20432;-64
2023/09/17 01:24:20;;;;;;;7.27;6.67;;;;;;;;;;4976077;28;20503;-64
2023/09/17 01:27:14;;;;;;;7.90;7.10;;;;;;;;;;4975634;28;20768;-64
2023/09/17 01:29:41;;;;;;;7.90;7.30;;;;;;;;;;4974490;28;20532;-64
2023/09/17 01:32:08;;;;;;;6.93;6.50;;;;;;;;;;4975707;28;20459;-64
2023/09/17 01:34:37;;;;;;;7.60;6.43;;;;;;;;;;4975351;28;20519;-64
2023/09/17 01:37:05;;;;;;;6.23;5.83;;;;;;;;;;4975527;28;20423;-64
2023/09/17 01:39:33;;;;;;;10.53;5.90;;;;;;;;;;4975771;28;20837;-64
2023/09/17 01:42:01;;;;;;;6.57;5.97;;;;;;;;;;4975531;28;20457;-64
2023/09/17 01:44:29;;;;;;;7.10;6.40;;;;;;;;;;4974196;28;20465;-64
2023/09/17 01:47:00;;;;;;;6.80;6.30;;;;;;;;;;4975027;28;20448;-64
2023/09/17 01:49:31;;;;;;;6.50;6.00;;;;;;;;;;4974456;28;20571;-64
2023/09/17 01:51:57;;;;;;;9.50;6.63;;;;;;;;;;4975278;28;20478;-64
2023/09/17 01:54:23;;;;;;;7.27;6.77;;;;;;;;;;4975231;28;20497;-64
2023/09/17 01:56:52;;;;;;;6.30;5.90;;;;;;;;;;4975349;28;20454;-64
2023/09/17 01:59:18;;;;;;;6.23;5.70;;;;;;;;;;4974951;28;20417;-64
2023/09/17 02:01:44;;;;;;;11.53;6.00;;;;;;;;;;4974990;28;20460;-64
2023/09/17 02:04:10;;;;;;;6.50;6.07;;;;;;;;;;4975223;28;20442;-64
2023/09/17 02:06:36;;;;;;;7.10;6.00;;;;;;;;;;4974807;28;20822;-64
2023/09/17 02:09:08;;;;;;;6.73;6.13;;;;;;;;;;4974703;28;20513;-64
2023/09/17 02:11:36;;;;;;;6.80;6.30;;;;;;;;;;4974899;28;20434;-64
2023/09/17 02:14:02;;;;;;;5.87;5.67;;;;;;;;;;4973613;28;20470;-64
2023/09/17 02:16:28;;;;;;;8.93;6.77;;;;;;;;;;4974831;28;20409;-64
2023/09/17 02:18:57;;;;;;;6.80;6.30;;;;;;;;;;4974704;28;20432;-64
2023/09/17 02:21:25;;;;;;;6.80;6.20;;;;;;;;;;4974809;28;20417;-64
2023/09/17 02:23:51;;;;;;;7.10;6.47;;;;;;;;;;4974751;28;20424;-64
2023/09/17 02:26:19;;;;;;;6.30;5.90;;;;;;;;;;4974468;28;20528;-64
2023/09/17 02:28:45;;;;;;;6.33;5.83;;;;;;;;;;4974363;28;20491;-64
2023/09/17 02:31:11;;;;;;;8.53;7.00;;;;;;;;;;4974604;28;20444;-64
2023/09/17 02:33:37;;;;;;;7.50;6.90;;;;;;;;;;4974037;28;20566;-64
2023/09/17 02:36:03;;;;;;;7.60;7.10;;;;;;;;;;4973960;28;20429;-64
2023/09/17 02:38:29;;;;;;;7.37;6.63;;;;;;;;;;4974318;28;20451;-64
2023/09/17 02:40:55;;;;;;;6.73;6.13;;;;;;;;;;4974376;28;20393;-64
2023/09/17 02:43:21;;;;;;;6.07;5.80;;;;;;;;;;4974485;28;20545;-64
2023/09/17 02:45:49;;;;;;;6.10;5.70;;;;;;;;;;4974116;28;20885;-64
2023/09/17 02:48:17;;;;;;;6.57;6.10;;;;;;;;;;4973969;28;20434;-64
2023/09/17 02:50:43;;;;;;;6.13;5.53;;;;;;;;;;4974318;28;20432;-64
2023/09/17 02:53:09;;;;;;;6.20;5.70;;;;;;;;;;4974069;28;20806;-64
2023/09/17 02:55:37;;;;;;;6.80;6.20;;;;;;;;;;4973766;28;20478;-64
2023/09/17 02:58:03;;;;;;;6.40;5.97;;;;;;;;;;4974138;28;20897;-64
2023/09/17 03:00:38;;;;;;;9.00;7.27;;;;;;;;;;4973639;28;20851;-64
2023/09/17 03:03:06;;;;;;;6.87;6.27;;;;;;;;;;4974012;28;20406;-64
2023/09/17 03:05:32;;;;;;;9.73;6.70;;;;;;;;;;4972633;28;20476;-64
2023/09/17 03:07:58;;;;;;;7.27;6.10;;;;;;;;;;4973963;28;20420;-64
2023/09/17 03:10:26;;;;;;;7.50;7.00;;;;;;;;;;4974132;28;20494;-64
2023/09/17 03:12:52;;;;;;;7.20;6.70;;;;;;;;;;4973740;28;20451;-64
2023/09/17 03:15:18;;;;;;;6.80;6.30;;;;;;;;;;4973626;28;20966;-64
2023/09/17 03:17:49;;;;;;;7.00;6.17;;;;;;;;;;4973840;28;20404;-64
2023/09/17 03:20:22;;;;;;;7.77;7.07;;;;;;;;;;4973758;28;20511;-64
2023/09/17 03:22:48;;;;;;;7.57;6.97;;;;;;;;;;4973393;28;20421;-64
2023/09/17 03:25:17;;;;;;;7.60;7.00;;;;;;;;;;4973736;28;20422;-64
2023/09/17 03:27:44;;;;;;;7.10;6.50;;;;;;;;;;4973475;28;20428;-64
2023/09/17 03:30:10;;;;;;;7.27;6.73;;;;;;;;;;4973665;28;20416;-64
2023/09/17 03:32:36;;;;;;;6.63;6.33;;;;;;;;;;4973376;28;20807;-64
2023/09/17 03:35:03;;;;;;;6.53;6.03;;;;;;;;;;4973394;28;20468;-64
2023/09/17 03:37:32;;;;;;;7.30;6.70;;;;;;;;;;4973407;28;20419;-64
2023/09/17 03:40:08;;;;;;;10.73;7.60;;;;;;;;;;4973516;28;20393;-64
2023/09/17 03:42:34;;;;;;;6.50;6.10;;;;;;;;;;4971888;28;20814;-64
2023/09/17 03:45:01;;;;;;;7.27;6.87;;;;;;;;;;4972141;28;20432;-64
2023/09/17 03:47:29;;;;;;;7.37;6.80;;;;;;;;;;4972124;28;20445;-64
2023/09/17 03:49:58;;;;;;;7.77;7.23;;;;;;;;;;4973103;28;20440;-64
2023/09/17 03:52:24;;;;;;;9.23;7.60;;;;;;;;;;4971545;28;20427;-64
2023/09/17 03:54:50;;;;;;;7.77;7.27;;;;;;;;;;4973267;28;20583;-64
2023/09/17 03:57:16;;;;;;;8.20;7.27;;;;;;;;;;4973279;28;20487;-64
2023/09/17 03:59:42;;;;;;;7.53;7.13;;;;;;;;;;4973250;28;20520;-64
2023/09/17 04:02:09;;;;;;;8.00;7.23;;;;;;;;;;4973274;28;20445;-64
2023/09/17 04:04:35;;;;;;;7.90;7.20;;;;;;;;;;4973401;28;20491;-64
2023/09/17 04:07:02;;;;;;;7.27;6.60;;;;;;;;;;4973076;28;20439;-64
2023/09/17 04:09:30;;;;;;;6.60;6.20;;;;;;;;;;4973335;28;20420;-64
2023/09/17 04:11:56;;;;;;;8.27;5.93;;;;;;;;;;4973087;28;20928;-64
2023/09/17 04:14:22;;;;;;;6.43;6.03;;;;;;;;;;4976657;28;20495;-64
2023/09/17 04:16:48;;;;;;;7.23;6.57;;;;;;;;;;4977071;28;20908;-64
2023/09/17 04:19:15;;;;;;;6.63;6.10;;;;;;;;;;4977056;28;20412;-64
2023/09/17 04:21:41;;;;;;;7.10;6.60;;;;;;;;;;4976977;28;20441;-64
2023/09/17 04:24:07;;;;;;;7.27;6.57;;;;;;;;;;4976817;28;20432;-64
2023/09/17 04:26:33;;;;;;;7.03;6.43;;;;;;;;;;4977001;28;20448;-64
2023/09/17 04:29:01;;;;;;;5.77;5.50;;;;;;;;;;4976857;28;20447;-64
2023/09/17 04:31:27;;;;;;;10.23;6.30;;;;;;;;;;4976861;28;20919;-64
2023/09/17 04:33:53;;;;;;;6.67;5.97;;;;;;;;;;4976712;28;20473;-64
2023/09/17 04:36:22;;;;;;;6.83;5.73;;;;;;;;;;4975523;28;20429;-64
2023/09/17 04:38:48;;;;;;;7.37;6.50;;;;;;;;;;4976725;28;20850;-64
2023/09/17 04:41:14;;;;;;;6.63;6.00;;;;;;;;;;4975333;28;20490;-64
2023/09/17 04:43:40;;;;;;;6.23;5.90;;;;;;;;;;4976694;28;20482;-64
2023/09/17 04:46:06;;;;;;;7.00;5.67;;;;;;;;;;4976521;28;20415;-64
2023/09/17 04:48:32;;;;;;;6.33;5.93;;;;;;;;;;4976602;28;20432;-64
2023/09/17 04:50:58;;;;;;;6.87;5.90;;;;;;;;;;4976531;28;20436;-64
2023/09/17 04:53:24;;;;;;;6.63;6.07;;;;;;;;;;4976238;28;20840;-64
2023/09/17 04:55:50;;;;;;;6.67;6.17;;;;;;;;;;4975117;28;20459;-64
2023/09/17 04:58:19;;;;;;;7.10;6.40;;;;;;;;;;4976175;28;20451;-64
2023/09/17 05:00:45;;;;;;;6.60;5.53;;;;;;;;;;4976405;28;20412;-64
2023/09/17 05:03:11;;;;;;;5.97;5.60;;;;;;;;;;4974878;28;20431;-64
2023/09/17 05:05:38;;;;;;;6.87;6.20;;;;;;;;;;4975037;28;20424;-64
2023/09/17 05:08:04;;;;;;;5.30;4.90;;;;;;;;;;4976474;28;20794;-64
2023/09/17 05:10:30;;;;;;;5.77;5.40;;;;;;;;;;4976192;28;20427;-64
2023/09/17 05:12:58;;;;;;;5.80;5.30;;;;;;;;;;4976100;28;20412;-64
2023/09/17 05:15:25;;;;;;;5.47;5.27;;;;;;;;;;4976547;28;20462;-64
2023/09/17 05:17:51;;;;;;;5.77;5.13;;;;;;;;;;4976174;28;20966;-64
2023/09/17 05:20:18;;;;;;;9.03;6.20;;;;;;;;;;4976003;28;20404;-64
2023/09/17 05:22:44;;;;;;;6.90;5.80;;;;;;;;;;4975802;28;20904;-64
2023/09/17 05:25:10;;;;;;;10.80;6.27;;;;;;;;;;4975889;28;20419;-64
2023/09/17 05:27:37;;;;;;;5.97;5.67;;;;;;;;;;4975928;28;20511;-64
2023/09/17 05:30:03;;;;;;;36.43;32.50;;;;;;;;;;4975828;28;20511;-64
2023/09/17 05:32:29;;;;;;;8.20;6.27;;;;;;;;;;4974403;28;20425;-64
2023/09/17 05:34:59;;;;;;;12.37;11.30;;;;;;;;;;4975920;28;20491;-64
2023/09/17 05:37:25;;;;;;;9.73;5.93;;;;;;;;;;4975471;28;20411;-64
2023/09/17 05:39:51;;;;;;;7.10;6.40;;;;;;;;;;4975623;28;20988;-64
2023/09/17 05:42:17;;;;;;;7.93;5.80;;;;;;;;;;4975582;28;20436;-64
2023/09/17 05:44:43;;;;;;;6.70;6.20;;;;;;;;;;4975497;28;20456;-64
2023/09/17 05:47:09;;;;;;;7.33;6.37;;;;;;;;;;4975374;28;20441;-64
2023/09/17 05:49:35;;;;;;;6.50;5.17;;;;;;;;;;4975485;28;20424;-64
2023/09/17 05:52:01;;;;;;;6.80;5.57;;;;;;;;;;4975605;28;20449;-64
2023/09/17 05:54:29;;;;;;;13.10;5.83;;;;;;;;;;4973956;28;20612;-64
2023/09/17 05:56:55;;;;;;;9.30;5.57;;;;;;;;;;4975195;28;20484;-64
2023/09/17 05:59:24;;;;;;;6.43;6.03;;;;;;;;;;4975340;28;20410;-64
2023/09/17 06:01:50;;;;;;;5.83;5.33;;;;;;;;;;4975255;28;20422;-64
2023/09/17 06:04:16;;;;;;;5.53;5.23;;;;;;;;;;4975204;28;20412;-64
2023/09/17 06:06:42;;;;;;;5.80;5.40;;;;;;;;;;4975035;28;20482;-64
2023/09/17 06:09:09;;;;;;;8.00;5.53;;;;;;;;;;4975067;28;20447;-64
2023/09/17 06:11:35;;;;;;;12.07;8.07;;;;;;;;;;4974949;28;20436;-64
2023/09/17 06:14:03;;;;;;;8.40;7.60;;;;;;;;;;4974913;28;20464;-64
2023/09/17 06:16:29;;;;;;;8.50;7.70;;;;;;;;;;4974968;28;20848;-64
2023/09/17 06:18:55;;;;;;;7.03;6.50;;;;;;;;;;4974979;28;20446;-64
2023/09/17 06:21:24;;;;;;;6.60;6.10;;;;;;;;;;4974968;28;20801;-64
2023/09/17 06:23:50;;;;;;;6.10;5.60;;;;;;;;;;4974774;28;20430;-64
2023/09/17 06:26:16;;;;;;;6.80;6.00;;;;;;;;;;4974814;28;20437;-64
2023/09/17 06:28:42;;;;;;;6.57;6.07;;;;;;;;;;4974629;28;20414;-64
2023/09/17 06:31:08;;;;;;;7.50;6.87;;;;;;;;;;4974662;28;20445;-64
2023/09/17 06:33:37;;;;;;;5.27;4.97;;;;;;;;;;4974307;28;20422;-64
2023/09/17 06:36:03;;;;;;;8.33;5.90;;;;;;;;;;4974008;28;20484;-64
2023/09/17 06:38:29;;;;;;;7.90;6.13;;;;;;;;;;4974511;28;20747;-64
2023/09/17 06:40:55;;;;;;;22.20;18.70;;;;;;;;;;4974519;28;20414;-64
2023/09/17 06:43:22;;;;;;;10.80;9.90;;;;;;;;;;4974460;28;20505;-64
2023/09/17 06:45:48;;;;;;;18.57;13.57;;;;;;;;;;4974315;28;20414;-64
2023/09/17 06:48:14;;;;;;;8.80;8.00;;;;;;;;;;4973658;28;20858;-64
2023/09/17 06:50:42;;;;;;;13.03;11.90;;;;;;;;;;4974171;28;20909;-64
2023/09/17 06:53:08;;;;;;;12.77;11.13;;;;;;;;;;4974163;28;20443;-64
2023/09/17 06:55:34;;;;;;;8.57;8.00;;;;;;;;;;4974012;28;20499;-64
2023/09/17 06:58:05;;;;;;;7.33;6.43;;;;;;;;;;4974040;28;20415;-64
2023/09/17 07:00:33;;;;;;;6.80;6.37;;;;;;;;;;4973859;28;20424;-64
2023/09/17 07:03:00;;;;;;;16.77;14.97;;;;;;;;;;4974152;28;20966;-64
2023/09/17 07:05:26;;;;;;;12.50;11.33;;;;;;;;;;4974219;28;20466;-64
2023/09/17 07:07:52;;;;;;;6.60;6.00;;;;;;;;;;4973660;28;20427;-64
2023/09/17 07:10:22;;;;;;;7.00;6.40;;;;;;;;;;4974100;28;20442;-64
2023/09/17 07:12:49;;;;;;;8.33;7.60;;;;;;;;;;4973608;28;20511;-64
2023/09/17 07:15:20;;;;;;;7.23;6.63;;;;;;;;;;4973944;28;20952;-64
2023/09/17 07:17:46;;;;;;;7.03;5.53;;;;;;;;;;4974156;28;20417;-64
2023/09/17 07:20:13;;;;;;;6.20;5.70;;;;;;;;;;4974101;28;20930;-64
2023/09/17 07:22:39;;;;;;;6.13;5.47;;;;;;;;;;4974149;28;20450;-64
2023/09/17 07:25:05;;;;;;;5.23;4.70;;;;;;;;;;4973989;28;20456;-64
2023/09/17 07:27:34;;;;;;;6.40;5.73;;;;;;;;;;4973666;28;20424;-64
2023/09/17 07:30:00;;;;;;;9.67;5.00;;;;;;;;;;4973899;28;20500;-64
2023/09/17 07:32:27;;;;;;;4.90;4.60;;;;;;;;;;4974229;28;20849;-64
2023/09/17 07:34:53;;;;;;;5.03;4.73;;;;;;;;;;4973782;28;20469;-64
2023/09/17 07:37:23;;;;;;;9.23;5.10;;;;;;;;;;4973998;28;20430;-64
2023/09/17 07:39:54;;;;;;;10.40;9.50;;;;;;;;;;4973852;28;20416;-64
2023/09/17 07:42:20;;;;;;;5.30;4.83;;;;;;;;;;4973838;28;20415;-64
2023/09/17 07:44:46;;;;;;;8.73;4.47;;;;;;;;;;4973754;28;20426;-64
2023/09/17 07:47:13;;;;;;;4.80;4.57;;;;;;;;;;4972952;28;20798;-64
2023/09/17 07:49:41;;;;;;;4.80;4.60;;;;;;;;;;4973875;28;20419;-64
2023/09/17 07:52:09;;;;;;;4.70;4.30;;;;;;;;;;4973706;28;20503;-63
2023/09/17 07:54:45;;;;;;;4.67;4.20;;;;;;;;;;4973559;28;20471;-58
2023/09/17 07:57:12;;;;;;;5.40;4.80;;;;;;;;;;4973535;28;20417;-59
2023/09/17 07:59:41;;;;;;;5.20;4.80;;;;;;;;;;4973543;28;20421;-59
2023/09/17 08:02:07;;;;;;;14.10;10.57;;;;;;;;;;4973194;28;20862;-59
2023/09/17 08:04:33;;;;;;;8.93;7.67;;;;;;;;;;4973433;28;20473;-59
2023/09/17 08:06:59;;;;;;;5.73;4.77;;;;;;;;;;4973211;28;20829;-59
2023/09/17 08:09:25;;;;;;;4.97;4.57;;;;;;;;;;4973027;28;21055;-59
2023/09/17 08:11:51;;;;;;;5.63;4.37;;;;;;;;;;4972126;28;20552;-58
2023/09/17 08:14:22;;;;;;;4.43;4.23;;;;;;;;;;4972715;28;20470;-60
2023/09/17 08:16:48;;;;;;;4.20;3.90;;;;;;;;;;4972654;28;20426;-61
2023/09/17 08:19:17;;;;;;;4.93;3.77;;;;;;;;;;4972534;28;20426;-61
2023/09/17 08:21:43;;;;;;;5.30;3.40;;;;;;;;;;4972974;28;20589;-61
2023/09/17 08:24:12;;;;;;;3.80;3.57;;;;;;;;;;4973540;28;20912;-61
2023/09/17 08:26:38;;;;;;;5.30;3.93;;;;;;;;;;4973526;28;20441;-61
2023/09/17 08:29:05;;;;;;;7.63;4.40;;;;;;;;;;4973371;28;20418;-61
2023/09/17 08:31:32;;;;;;;7.27;4.10;;;;;;;;;;4973535;28;20438;-61
2023/09/17 08:34:03;;;;;;;3.60;3.40;;;;;;;;;;4972803;28;20462;-61
2023/09/17 08:36:29;;;;;;;4.73;3.20;;;;;;;;;;4973390;28;20500;-61
2023/09/17 08:38:55;;;;;;;10.03;3.30;;;;;;;;;;4972431;28;20470;-61
2023/09/17 08:41:25;;;;;;;5.83;3.50;;;;;;;;;;4972925;28;20420;-58
2023/09/17 08:43:54;;;;;;;4.33;3.30;;;;;;;;;;4972747;28;20457;-58
2023/09/17 08:46:21;;;;;;;4.00;3.77;;;;;;;;;;4972852;28;20484;-58
2023/09/17 08:48:47;;;;;;;8.23;3.13;;;;;;;;;;4973400;28;20441;-59
2023/09/17 08:51:14;;;;;;;6.33;5.67;;;;;;;;;;4972780;28;20955;-58
2023/09/17 08:53:46;;;;;;;3.40;3.10;;;;;;;;;;4973364;28;20441;-59
2023/09/17 08:56:17;;;;;;;3.97;3.60;;;;;;;;;;4973208;28;20491;-59
2023/09/17 08:58:47;;;;;;;3.10;3.00;;;;;;;;;;4974317;28;20394;-59
2023/09/17 09:01:16;;;;;;;4.30;4.00;;;;;;;;;;4976316;28;20436;-59
2023/09/17 09:03:43;;;;;;;3.87;3.53;;;;;;;;;;4976314;28;20428;-59
2023/09/17 09:06:09;;;;;;;9.07;3.20;;;;;;;;;;4976191;28;20832;-58
2023/09/17 09:08:36;;;;;;;4.20;3.30;;;;;;;;;;4976264;28;20448;-58
2023/09/17 09:11:04;;;;;;;3.70;3.40;;;;;;;;;;4976477;28;20471;-59
2023/09/17 09:13:31;;;;;;;3.27;3.03;;;;;;;;;;4976187;28;20418;-59
2023/09/17 09:16:00;;;;;;;3.43;3.13;;;;;;;;;;4976477;28;20461;-59
2023/09/17 09:18:26;;;;;;;6.00;3.10;;;;;;;;;;4976444;28;20497;-59
2023/09/17 09:20:52;;;;;;;5.90;3.70;;;;;;;;;;4976606;28;20493;-59
2023/09/17 09:23:20;;;;;;;5.90;3.57;;;;;;;;;;4976318;28;20423;-59
2023/09/17 09:25:46;;;;;;;10.77;3.40;;;;;;;;;;4976193;28;20783;-59
2023/09/17 09:28:12;;;;;;;9.77;3.60;;;;;;;;;;4974585;28;20871;-59
2023/09/17 09:30:38;;;;;;;4.03;3.30;;;;;;;;;;4974783;28;20421;-59
2023/09/17 09:33:06;;;;;;;7.03;6.33;;;;;;;;;;4975031;28;20422;-59
2023/09/17 09:35:33;;;;;;;6.10;3.37;;;;;;;;;;4974537;28;20977;-59
2023/09/17 09:38:01;;;;;;;4.67;3.50;;;;;;;;;;4976171;28;20442;-58
2023/09/17 09:40:27;;;;;;;5.60;2.60;;;;;;;;;;4976136;28;20621;-59
2023/09/17 09:42:55;;;;;;;5.50;3.23;;;;;;;;;;4975665;28;20517;-59
2023/09/17 09:45:21;;;;;;;11.23;3.50;;;;;;;;;;4976067;28;20777;-58
2023/09/17 09:47:54;;;;;;;4.90;3.00;;;;;;;;;;4974549;28;20466;-59
2023/09/17 09:50:24;;;;;;;6.33;3.47;;;;;;;;;;4975702;28;20439;-59
2023/09/17 09:52:52;;;;;;;3.27;3.00;;;;;;;;;;4973868;28;20522;-59
2023/09/17 09:55:19;;;;;;;5.13;3.13;;;;;;;;;;4975518;28;20941;-58
2023/09/17 09:57:47;;;;;;;3.10;2.80;;;;;;;;;;4975556;28;20958;-58
2023/09/17 10:00:18;;;;;;;4.00;2.60;;;;;;;;;;4975536;28;20423;-58
2023/09/17 10:02:46;;;;;;;78.77;66.87;;;;;;;;;;4975492;28;20574;-58
2023/09/17 10:05:18;;;;;;;5.87;5.27;;;;;;;;;;4975472;28;20818;-58
2023/09/17 10:07:47;;;;;;;2.47;2.20;;;;;;;;;;4975605;28;20470;-58
2023/09/17 10:10:16;;;;;;;8.20;3.03;;;;;;;;;;4974242;28;20426;-58
2023/09/17 10:12:42;;;;;;;3.70;3.07;;;;;;;;;;4976892;28;20422;-58
2023/09/17 10:15:08;;;;;;;4.00;2.53;;;;;;;;;;4975269;28;20466;-59
2023/09/17 10:17:36;;;;;;;5.93;2.63;;;;;;;;;;4975043;28;20445;-59
2023/09/17 10:20:06;;;;;;;9.00;2.57;;;;;;;;;;4975393;28;20449;-58
2023/09/17 10:22:35;;;;;;;7.43;2.80;;;;;;;;;;4975253;28;20419;-58
2023/09/17 10:25:06;;;;;;;9.90;3.10;;;;;;;;;;4975062;28;20415;-58
2023/09/17 10:27:36;;;;;;;5.07;3.10;;;;;;;;;;4974671;28;20793;-58
2023/09/17 10:30:04;;;;;;;34.70;30.73;;;;;;;;;;4975040;28;20612;-58
2023/09/17 10:32:32;;;;;;;5.40;2.60;;;;;;;;;;4975181;28;20843;-59
2023/09/17 10:35:02;;;;;;;5.27;3.10;;;;;;;;;;4974567;28;20478;-59
2023/09/17 10:37:30;;;;;;;4.27;2.80;;;;;;;;;;4975784;28;20586;-58
2023/09/17 10:39:56;;;;;;;3.70;2.77;;;;;;;;;;4974953;28;20449;-59
2023/09/17 10:42:23;;;;;;;7.67;2.60;;;;;;;;;;4974747;28;20477;-59
2023/09/17 10:44:54;;;;;;;5.77;2.50;;;;;;;;;;4974342;28;20887;-59
2023/09/17 10:47:21;;;;;;;4.23;2.50;;;;;;;;;;4974330;28;20930;-59
2023/09/17 10:49:47;;;;;;;5.57;3.20;;;;;;;;;;4974476;28;20422;-59
2023/09/17 10:52:13;;;;;;;4.50;3.00;;;;;;;;;;4974563;28;20511;-59
2023/09/17 10:54:42;;;;;;;3.17;2.53;;;;;;;;;;4974223;28;20465;-59
2023/09/17 10:57:28;;;;;;;3.60;2.47;;;;;;;;;;4974489;28;20857;-58
2023/09/17 10:59:56;;;;;;;7.20;2.93;;;;;;;;;;4974064;28;20851;-59
2023/09/17 11:02:23;;;;;;;4.83;2.27;;;;;;;;;;4974471;28;20618;-59
2023/09/17 11:04:50;;;;;;;10.73;3.03;;;;;;;;;;4974304;28;21020;-59
2023/09/17 11:07:17;;;;;;;5.43;2.60;;;;;;;;;;4973477;28;20478;-59
2023/09/17 11:09:45;;;;;;;2.60;2.40;;;;;;;;;;4974608;28;20415;-59
2023/09/17 11:12:11;;;;;;;5.10;2.87;;;;;;;;;;4974216;28;20446;-59
2023/09/17 11:14:37;;;;;;;5.93;2.47;;;;;;;;;;4973801;28;20466;-59
2023/09/17 11:17:04;;;;;;;6.97;2.80;;;;;;;;;;4974355;28;20418;-59
2023/09/17 11:19:30;;;;;;;3.33;2.57;;;;;;;;;;4972886;28;20423;-58
2023/09/17 11:22:02;;;;;;;6.20;2.83;;;;;;;;;;4973882;28;20447;-58
2023/09/17 11:24:28;;;;;;;2.43;2.27;;;;;;;;;;4974328;28;20422;-58
2023/09/17 11:27:01;;;;;;;2.50;2.40;;;;;;;;;;4973015;28;20853;-58
2023/09/17 11:29:40;;;;;;;3.50;2.50;;;;;;;;;;4974526;28;20423;-58
2023/09/17 11:32:06;;;;;;;2.93;2.63;;;;;;;;;;4974741;28;20414;-58
2023/09/17 11:34:35;;;;;;;5.60;2.87;;;;;;;;;;4973042;28;20549;-58
2023/09/17 11:37:03;;;;;;;5.90;4.57;;;;;;;;;;4974009;28;20417;-58
2023/09/17 11:39:29;;;;;;;3.37;2.50;;;;;;;;;;4974029;28;20411;-58
2023/09/17 11:42:03;;;;;;;2.80;2.27;;;;;;;;;;4972845;28;20434;-59
2023/09/17 11:44:30;;;;;;;4.63;2.47;;;;;;;;;;4974376;28;20427;-58
2023/09/17 11:46:56;;;;;;;7.90;2.97;;;;;;;;;;4973308;28;20506;-59
2023/09/17 11:49:22;;;;;;;5.07;2.40;;;;;;;;;;4973794;28;20438;-59
2023/09/17 11:51:49;;;;;;;4.20;2.23;;;;;;;;;;4973444;28;20419;-59
2023/09/17 11:54:20;;;;;;;2.90;2.40;;;;;;;;;;4973614;28;20466;-58
2023/09/17 11:56:47;;;;;;;3.23;1.90;;;;;;;;;;4974047;28;20391;-58
2023/09/17 11:59:15;;;;;;;4.53;2.20;;;;;;;;;;4973364;28;20506;-58
2023/09/17 12:01:55;;;;;;;3.43;2.30;;;;;;;;;;4973622;28;20422;-59
2023/09/17 12:04:23;;;;;;;2.37;2.07;;;;;;;;;;4972569;28;20529;-59
2023/09/17 12:06:51;;;;;;;3.07;2.43;;;;;;;;;;4972128;28;20861;-59
2023/09/17 12:09:31;;;;;;;9.20;2.20;;;;;;;;;;4972181;28;20445;-59
2023/09/17 12:12:00;;;;;;;2.43;2.33;;;;;;;;;;4973116;28;20414;-59
2023/09/17 12:14:27;;;;;;;4.33;2.30;;;;;;;;;;4973328;28;20804;-58
2023/09/17 12:16:53;;;;;;;2.63;1.70;;;;;;;;;;4973218;28;20411;-58
2023/09/17 12:19:20;;;;;;;2.57;2.30;;;;;;;;;;4971879;28;20486;-59
2023/09/17 12:21:48;;;;;;;5.47;2.07;;;;;;;;;;4973203;28;20414;-58
2023/09/17 12:24:23;;;;;;;2.00;1.90;;;;;;;;;;4973077;28;20807;-58
2023/09/17 12:27:09;;;;;;;5.07;2.33;;;;;;;;;;4973212;28;20446;-58
2023/09/17 12:29:38;;;;;;;2.30;2.10;;;;;;;;;;4973008;28;20414;-59
2023/09/17 12:32:06;;;;;;;2.73;2.53;;;;;;;;;;4973087;28;20418;-58
2023/09/17 12:34:38;;;;;;;4.87;2.30;;;;;;;;;;4975184;28;20474;-58
2023/09/17 12:37:05;;;;;;;7.87;2.50;;;;;;;;;;4977129;28;20411;-58
2023/09/17 12:39:31;;;;;;;5.70;1.97;;;;;;;;;;4977194;28;20814;-59
2023/09/17 12:41:57;;;;;;;4.00;2.00;;;;;;;;;;4976891;28;20415;-58
2023/09/17 12:44:26;;;;;;;3.23;2.10;;;;;;;;;;4976929;28;20429;-59
2023/09/17 12:46:52;;;;;;;5.47;2.40;;;;;;;;;;4975863;28;20430;-58
2023/09/17 12:49:21;;;;;;;10.20;3.90;;;;;;;;;;4976733;28;20449;-58
2023/09/17 12:51:47;;;;;;;6.40;3.70;;;;;;;;;;4976988;28;20485;-58
2023/09/17 12:54:13;;;;;;;5.77;2.60;;;;;;;;;;4975058;28;20977;-58
2023/09/17 12:56:41;;;;;;;5.33;2.60;;;;;;;;;;4976315;28;20422;-58
2023/09/17 12:59:07;;;;;;;1.93;1.83;;;;;;;;;;4976348;28;20450;-58
2023/09/17 13:01:33;;;;;;;3.43;2.13;;;;;;;;;;4976377;28;20450;-58
2023/09/17 13:04:03;;;;;;;6.77;2.43;;;;;;;;;;4976738;28;20426;-58
2023/09/17 13:06:35;;;;;;;3.90;1.97;;;;;;;;;;4975903;28;20498;-59
2023/09/17 13:09:02;;;;;;;4.63;2.27;;;;;;;;;;4976347;28;20414;-59
2023/09/17 13:11:28;;;;;;;4.80;1.90;;;;;;;;;;4976227;28;20426;-58
2023/09/17 13:13:57;;;;;;;4.93;2.17;;;;;;;;;;4976180;28;20415;-59
2023/09/17 13:16:23;;;;;;;1.83;1.73;;;;;;;;;;4976472;28;20485;-58
2023/09/17 13:18:50;;;;;;;2.83;2.10;;;;;;;;;;4975094;28;20449;-58
2023/09/17 13:21:19;;;;;;;4.00;2.20;;;;;;;;;;4976265;28;20918;-59
2023/09/17 13:23:45;;;;;;;3.30;2.30;;;;;;;;;;4976441;28;20439;-58
2023/09/17 13:26:11;;;;;;;2.10;1.90;;;;;;;;;;4975481;28;20426;-58
2023/09/17 13:28:38;;;;;;;4.27;2.63;;;;;;;;;;4975995;28;20436;-58
2023/09/17 13:31:05;;;;;;;7.70;2.10;;;;;;;;;;4976200;28;20411;-58
2023/09/17 13:33:31;;;;;;;2.10;2.00;;;;;;;;;;4975925;28;20578;-58
2023/09/17 13:35:58;;;;;;;3.70;2.20;;;;;;;;;;4975878;28;20458;-58
2023/09/17 13:38:24;;;;;;;2.93;2.30;;;;;;;;;;4975505;28;20501;-58
2023/09/17 13:40:53;;;;;;;3.33;2.40;;;;;;;;;;4974744;28;20554;-58
2023/09/17 13:43:19;;;;;;;4.20;1.80;;;;;;;;;;4975517;28;20403;-59
2023/09/17 13:45:55;;;;;;;2.70;2.00;;;;;;;;;;4974417;28;20430;-58
2023/09/17 13:48:21;;;;;;;4.97;2.10;;;;;;;;;;4974099;28;20524;-58
2023/09/17 13:50:48;;;;;;;2.63;2.43;;;;;;;;;;4975416;28;20911;-58
2023/09/17 13:53:14;;;;;;;2.27;2.07;;;;;;;;;;4975640;28;20430;-59
2023/09/17 13:55:40;;;;;;;2.80;2.40;;;;;;;;;;4975494;28;20506;-58
2023/09/17 13:58:06;;;;;;;2.70;2.27;;;;;;;;;;4975246;28;20416;-58
2023/09/17 14:00:35;;;;;;;2.07;1.97;;;;;;;;;;4975510;28;20450;-59
2023/09/17 14:03:02;;;;;;;4.33;2.80;;;;;;;;;;4975057;28;20419;-58
2023/09/17 14:05:28;;;;;;;4.33;2.40;;;;;;;;;;4974048;28;20423;-58
2023/09/17 14:07:54;;;;;;;5.20;2.20;;;;;;;;;;4975354;28;20839;-58
2023/09/17 14:10:20;;;;;;;3.93;2.20;;;;;;;;;;4974890;28;20461;-58
2023/09/17 14:12:46;;;;;;;3.27;1.73;;;;;;;;;;4975455;28;20418;-58
2023/09/17 14:15:12;;;;;;;1.67;1.57;;;;;;;;;;4975581;28;20290;-58
2023/09/17 14:17:38;;;;;;;2.97;1.57;;;;;;;;;;4975140;28;20914;-59
2023/09/17 14:20:04;;;;;;;4.93;1.93;;;;;;;;;;4976132;28;20438;-58
2023/09/17 14:22:30;;;;;;;5.73;2.00;;;;;;;;;;4975086;28;20457;-58
2023/09/17 14:24:59;;;;;;;2.07;1.90;;;;;;;;;;4975542;28;20486;-58
2023/09/17 14:27:27;;;;;;;5.23;1.70;;;;;;;;;;4975290;28;20711;-58
2023/09/17 14:29:53;;;;;;;4.53;2.20;;;;;;;;;;4975263;28;20442;-59
2023/09/17 14:32:22;;;;;;;5.13;2.40;;;;;;;;;;4974051;28;20796;-58
2023/09/17 14:34:48;;;;;;;3.47;1.90;;;;;;;;;;4974355;28;20524;-58
2023/09/17 14:37:14;;;;;;;5.60;2.40;;;;;;;;;;4974812;28;20411;-59
2023/09/17 14:39:40;;;;;;;4.43;1.93;;;;;;;;;;4974665;28;20406;-58
2023/09/17 14:42:06;;;;;;;5.03;1.93;;;;;;;;;;4974677;28;20418;-58